Time;durP1;ratioP1;P1;durP2;ratioP2;P2;SDS_P1;SDS_P2;PMS_P1;PMS_P2;Temp;Humidity;BMP_temperature;BMP_pressure;BME280_temperature;BME280_humidity;BME280_pressure;Samples;Min_cycle;Max_cycle;Signal;HPM_P1;HPM_P2
2022/04/04 00:03:56;;;;;;;;;;;;;;;20.95;27.07;95886.22;10497146;28;1973;-50
2022/04/04 00:08:57;;;;;;;;;;;;;;;20.94;27.01;95881.19;10505020;28;1945;-47
2022/04/04 00:13:58;;;;;;;;;;;;;;;20.92;27.28;95878.03;10500895;28;2182;-47
2022/04/04 00:19:00;;;;;;;;;;;;;;;20.93;27.00;95869.09;10494200;28;2127;-51
2022/04/04 00:24:00;;;;;;;;;;;;;;;20.91;27.10;95866.75;10517604;28;1977;-50
2022/04/04 00:29:02;;;;;;;;;;;;;;;20.95;26.86;95859.84;10497528;28;2435;-48
2022/04/04 00:34:03;;;;;;;;;;;;;;;20.92;26.99;95856.97;10513649;28;1906;-47
2022/04/04 00:39:03;;;;;;;;;;;;;;;20.92;26.82;95849.84;10501731;28;2381;-48
2022/04/04 00:44:04;;;;;;;;;;;;;;;20.94;26.89;95850.38;10494724;28;1906;-50
2022/04/04 00:49:05;;;;;;;;;;;;;;;20.95;27.01;95848.53;10497968;28;1947;-49
2022/04/04 00:54:07;;;;;;;;;;;;;;;20.95;26.83;95846.69;10493176;28;1893;-47
2022/04/04 00:59:12;;;;;;;;;;;;;;;20.91;26.63;95840.38;10498493;28;1897;-46
2022/04/04 01:04:13;;;;;;;;;;;;;;;20.91;27.00;95829.84;10516994;28;1910;-48
2022/04/04 01:09:14;;;;;;;;;;;;;;;20.95;26.78;95830.88;10507574;28;1895;-50
2022/04/04 01:14:17;;;;;;;;;;;;;;;20.92;26.88;95814.81;10493257;28;1852;-46
2022/04/04 01:19:18;;;;;;;;;;;;;;;20.93;26.88;95819.03;10487537;28;2050;-48
2022/04/04 01:24:21;;;;;;;;;;;;;;;20.94;26.71;95824.00;10509333;28;1977;-48
2022/04/04 01:29:22;;;;;;;;;;;;;;;20.91;26.65;95815.88;10516082;28;1829;-47
2022/04/04 01:34:22;;;;;;;;;;;;;;;20.91;26.59;95813.25;10515234;28;2057;-51
2022/04/04 01:39:23;;;;;;;;;;;;;;;20.90;26.55;95803.75;10508934;28;2075;-48
2022/04/04 01:44:23;;;;;;;;;;;;;;;20.89;26.71;95805.63;10509728;28;1981;-52
2022/04/04 01:49:23;;;;;;;;;;;;;;;20.91;26.45;95800.88;10507683;28;1817;-49
2022/04/04 01:54:25;;;;;;;;;;;;;;;20.89;26.50;95797.72;10516146;28;1916;-48
2022/04/04 01:59:26;;;;;;;;;;;;;;;20.88;26.45;95796.13;10510632;28;1801;-50
2022/04/04 02:04:27;;;;;;;;;;;;;;;20.89;26.38;95794.28;10495563;28;1973;-49
2022/04/04 02:09:27;;;;;;;;;;;;;;;20.88;26.47;95792.69;10488831;28;1794;-50
2022/04/04 02:14:28;;;;;;;;;;;;;;;20.87;26.47;95786.66;10508735;28;1840;-46
2022/04/04 02:19:29;;;;;;;;;;;;;;;20.86;26.45;95787.72;10499813;28;1998;-49
2022/04/04 02:24:29;;;;;;;;;;;;;;;20.87;26.39;95777.97;10519385;28;1973;-46
2022/04/04 02:29:29;;;;;;;;;;;;;;;20.89;26.45;95783.75;10502087;28;1849;-47
2022/04/04 02:34:31;;;;;;;;;;;;;;;20.85;26.38;95777.44;10513238;28;1793;-48
2022/04/04 02:39:31;;;;;;;;;;;;;;;20.86;26.44;95779.81;10513358;28;1812;-48
2022/04/04 02:44:32;;;;;;;;;;;;;;;20.89;26.32;95784.53;10514544;28;1970;-46
2022/04/04 02:49:32;;;;;;;;;;;;;;;20.88;26.33;95779.53;10515675;28;1809;-47
2022/04/04 02:54:33;;;;;;;;;;;;;;;20.89;26.18;95775.84;10511744;28;1837;-46
2022/04/04 02:59:35;;;;;;;;;;;;;;;20.85;26.37;95770.34;10514243;28;1667;-47
2022/04/04 03:04:39;;;;;;;;;;;;;;;20.84;26.36;95766.13;10516350;28;1914;-46
2022/04/04 03:09:41;;;;;;;;;;;;;;;20.85;26.38;95757.16;10510155;28;1872;-49
2022/04/04 03:14:42;;;;;;;;;;;;;;;20.83;26.34;95764.56;10510430;28;1854;-47
2022/04/04 03:19:43;;;;;;;;;;;;;;;20.82;26.34;95754.28;10517721;28;1963;-49
2022/04/04 03:24:44;;;;;;;;;;;;;;;20.86;26.13;95752.66;10515527;28;1965;-47
2022/04/04 03:29:44;;;;;;;;;;;;;;;20.86;26.28;95755.31;10508940;28;2050;-46
2022/04/04 03:34:45;;;;;;;;;;;;;;;20.84;26.22;95758.22;10505876;28;2061;-51
2022/04/04 03:39:45;;;;;;;;;;;;;;;20.82;25.98;95747.16;10494074;28;1990;-47
2022/04/04 03:44:46;;;;;;;;;;;;;;;20.88;26.33;95745.28;10490938;28;1902;-50
2022/04/04 03:49:46;;;;;;;;;;;;;;;20.89;26.38;95750.28;10495329;28;1979;-47
2022/04/04 03:54:47;;;;;;;;;;;;;;;20.90;26.51;95746.56;10496762;28;1789;-47
2022/04/04 03:59:47;;;;;;;;;;;;;;;20.86;26.88;95756.09;10487426;28;1833;-49
2022/04/04 04:04:47;;;;;;;;;;;;;;;20.89;26.92;95746.84;10513470;28;1961;-49
2022/04/04 04:09:48;;;;;;;;;;;;;;;20.92;26.89;95749.72;10510645;28;1801;-48
2022/04/04 04:14:48;;;;;;;;;;;;;;;20.90;26.96;95754.47;10490442;28;1841;-50
2022/04/04 04:25:08;;;;;;;;;;;;;;;20.90;27.02;95751.84;10493995;28;1948;-48
2022/04/04 04:30:09;;;;;;;;;;;;;;;20.88;27.02;95743.44;10492214;28;1929;-46
2022/04/04 04:35:11;;;;;;;;;;;;;;;20.89;27.03;95745.03;10493314;28;1876;-54
2022/04/04 04:40:12;;;;;;;;;;;;;;;20.91;26.79;95745.53;10514283;28;1975;-53
2022/04/04 04:45:13;;;;;;;;;;;;;;;20.91;27.21;95750.81;10494420;28;1872;-49
2022/04/04 04:50:14;;;;;;;;;;;;;;;20.94;27.30;95749.44;10512654;28;1817;-45
2022/04/04 04:55:14;;;;;;;;;;;;;;;20.93;26.93;95748.69;10491581;28;1845;-53
2022/04/04 05:00:15;;;;;;;;;;;;;;;20.92;26.83;95757.63;10491310;28;1905;-49
2022/04/04 05:05:16;;;;;;;;;;;;;;;20.90;26.95;95738.66;10505075;28;1914;-51
2022/04/04 05:10:16;;;;;;;;;;;;;;;20.89;26.72;95744.22;10483507;28;1939;-48
2022/04/04 05:15:17;;;;;;;;;;;;;;;20.87;26.82;95744.50;10492269;28;1877;-52
2022/04/04 05:20:17;;;;;;;;;;;;;;;20.86;26.55;95744.75;10503193;28;1980;-49
2022/04/04 05:25:18;;;;;;;;;;;;;;;20.85;26.66;95740.56;10492718;28;1808;-49
2022/04/04 05:30:19;;;;;;;;;;;;;;;20.84;26.70;95742.41;10490290;28;2079;-46
2022/04/04 05:35:19;;;;;;;;;;;;;;;20.85;26.56;95749.28;10492576;28;1817;-48
2022/04/04 05:40:21;;;;;;;;;;;;;;;20.84;26.59;95760.84;10510749;28;1983;-48
2022/04/04 05:45:22;;;;;;;;;;;;;;;20.85;26.47;95759.00;10511177;28;1900;-50
2022/04/04 05:50:22;;;;;;;;;;;;;;;20.81;26.21;95766.66;10515865;28;1812;-52
2022/04/04 05:55:22;;;;;;;;;;;;;;;20.80;26.31;95764.31;10520640;28;1822;-50
2022/04/04 06:00:23;;;;;;;;;;;;;;;20.76;26.30;95758.81;10516426;28;1976;-51
2022/04/04 06:05:24;;;;;;;;;;;;;;;20.77;26.51;95765.63;10521119;28;1939;-52
2022/04/04 06:10:25;;;;;;;;;;;;;;;20.79;26.48;95768.78;10521017;28;1806;-51
2022/04/04 06:15:25;;;;;;;;;;;;;;;20.80;26.76;95762.47;10497761;28;1809;-49
2022/04/04 06:20:25;;;;;;;;;;;;;;;20.82;26.76;95770.88;10500186;28;1967;-50
2022/04/04 06:25:26;;;;;;;;;;;;;;;20.79;26.70;95770.66;10495544;28;1774;-53
2022/04/04 06:30:27;;;;;;;;;;;;;;;20.78;26.98;95776.97;10511517;28;1925;-50
2022/04/04 06:35:28;;;;;;;;;;;;;;;20.74;27.10;95771.47;10492634;28;1915;-48
2022/04/04 06:40:28;;;;;;;;;;;;;;;20.78;27.09;95777.75;10494981;28;1905;-48
2022/04/04 06:45:28;;;;;;;;;;;;;;;20.78;27.20;95771.69;10496336;28;1745;-48
2022/04/04 06:50:30;;;;;;;;;;;;;;;20.78;27.44;95772.50;10494854;28;1891;-50
2022/04/04 06:55:33;;;;;;;;;;;;;;;20.73;27.50;95772.50;10514475;28;2022;-50
2022/04/04 07:00:34;;;;;;;;;;;;;;;20.76;27.46;95764.06;10514518;28;2014;-47
2022/04/04 07:05:35;;;;;;;;;;;;;;;20.74;27.34;95768.03;10491923;28;1841;-54
2022/04/04 07:10:35;;;;;;;;;;;;;;;20.70;27.32;95759.91;10490876;28;1829;-46
2022/04/04 07:15:35;;;;;;;;;;;;;;;20.71;27.29;95765.97;10495510;28;1852;-46
2022/04/04 07:20:36;;;;;;;;;;;;;;;20.70;27.32;95757.25;10455304;28;1969;-53
2022/04/04 07:25:36;;;;;;;;;;;;;;;20.69;27.19;95753.03;10497389;28;1903;-50
2022/04/04 07:30:37;;;;;;;;;;;;;;;20.71;27.20;95753.56;10487192;28;1918;-49
2022/04/04 07:35:37;;;;;;;;;;;;;;;20.72;27.42;95751.72;10488429;28;1798;-50
2022/04/04 07:40:38;;;;;;;;;;;;;;;20.72;27.34;95738.53;10490877;28;1914;-47
2022/04/04 07:45:39;;;;;;;;;;;;;;;20.71;27.37;95750.91;10492276;28;1862;-50
2022/04/04 07:50:42;;;;;;;;;;;;;;;20.72;27.46;95747.25;10498288;28;1786;-52
2022/04/04 07:55:42;;;;;;;;;;;;;;;20.72;27.24;95747.25;10504130;28;1895;-49
2022/04/04 08:00:43;;;;;;;;;;;;;;;20.69;27.26;95750.41;10509308;28;1968;-48
2022/04/04 08:05:43;;;;;;;;;;;;;;;20.70;27.45;95744.09;10489153;28;1792;-49
2022/04/04 08:10:44;;;;;;;;;;;;;;;20.73;27.51;95748.81;10498363;28;1808;-52
2022/04/04 08:15:45;;;;;;;;;;;;;;;20.71;27.52;95739.63;10485917;28;1781;-49
2022/04/04 08:20:45;;;;;;;;;;;;;;;20.68;27.63;95737.53;10509372;28;1906;-48
2022/04/04 08:25:46;;;;;;;;;;;;;;;20.66;27.51;95731.75;10504987;28;1870;-52
2022/04/04 08:30:47;;;;;;;;;;;;;;;20.67;27.48;95730.69;10490810;28;1777;-51
2022/04/04 08:35:47;;;;;;;;;;;;;;;20.66;27.48;95721.22;10489085;28;1793;-53
2022/04/04 08:40:48;;;;;;;;;;;;;;;20.67;27.50;95723.56;10482798;28;1975;-49
2022/04/04 08:45:48;;;;;;;;;;;;;;;20.69;27.28;95725.94;10485058;28;1788;-51
2022/04/04 08:50:49;;;;;;;;;;;;;;;20.66;27.53;95711.47;10489428;28;1842;-52
2022/04/04 08:55:49;;;;;;;;;;;;;;;20.67;27.53;95707.75;10510445;28;1820;-49
2022/04/04 09:00:49;;;;;;;;;;;;;;;20.70;27.40;95701.16;10488711;28;1981;-47
2022/04/04 09:05:51;;;;;;;;;;;;;;;20.68;27.39;95701.44;10500867;28;1778;-46
2022/04/04 09:10:54;;;;;;;;;;;;;;;20.66;27.19;95695.66;10507802;28;1900;-50
2022/04/04 09:15:59;;;;;;;;;;;;;;;20.70;27.25;95691.41;10483374;28;1964;-46
2022/04/04 09:20:59;;;;;;;;;;;;;;;20.72;27.46;95677.97;10489054;28;1914;-49
2022/04/04 09:26:00;;;;;;;;;;;;;;;20.76;27.16;95668.44;10503801;28;1770;-51
2022/04/04 09:31:08;;;;;;;;;;;;;;;20.73;27.41;95659.25;10507828;28;1980;-45
2022/04/04 09:36:09;;;;;;;;;;;;;;;20.72;27.77;95659.53;10487049;28;1963;-47
2022/04/04 09:41:15;;;;;;;;;;;;;;;20.78;27.86;95664.47;10488605;28;1910;-49
2022/04/04 09:46:16;;;;;;;;;;;;;;;20.83;28.26;95653.13;10509122;28;1876;-48
2022/04/04 09:51:23;;;;;;;;;;;;;;;20.86;28.31;95645.44;10485752;28;1789;-50
2022/04/04 09:56:25;;;;;;;;;;;;;;;20.82;28.48;95639.16;10488294;28;1840;-50
2022/04/04 10:01:25;;;;;;;;;;;;;;;20.85;28.45;95630.72;10486500;28;1977;-52
2022/04/04 10:06:29;;;;;;;;;;;;;;;20.84;28.30;95620.44;10490853;28;1800;-49
2022/04/04 10:11:36;;;;;;;;;;;;;;;20.86;28.23;95623.56;10487738;28;1784;-50
2022/04/04 10:16:36;;;;;;;;;;;;;;;20.85;28.02;95624.66;10490051;28;1801;-48
2022/04/04 10:21:40;;;;;;;;;;;;;;;20.85;28.09;95601.72;10485995;28;1914;-48
2022/04/04 10:26:40;;;;;;;;;;;;;;;20.85;27.74;95595.66;10506005;28;1881;-48
2022/04/04 10:31:42;;;;;;;;;;;;;;;20.82;27.76;95589.09;10505363;28;1553;-50
2022/04/04 10:36:56;;;;;;;;;;;;;;;20.79;27.99;95579.09;10510173;28;1390;-50
2022/04/04 10:41:58;;;;;;;;;;;;;;;20.79;27.77;95565.16;10494009;28;1909;-52
2022/04/04 10:47:01;;;;;;;;;;;;;;;20.79;27.75;95558.03;10506827;28;1882;-49
2022/04/04 10:52:02;;;;;;;;;;;;;;;20.81;27.54;95549.88;10508669;28;1900;-49
2022/04/04 10:57:03;;;;;;;;;;;;;;;20.79;27.40;95546.72;10507121;28;1713;-49
2022/04/04 11:02:04;;;;;;;;;;;;;;;20.76;27.90;95537.53;10492979;28;1941;-46
2022/04/04 11:12:56;;;;;;;;;;;;;;;20.83;27.67;95530.09;10508933;28;1861;-49
2022/04/04 11:18:00;;;;;;;;;;;;;;;20.86;27.74;95511.06;10504788;28;2104;-49
2022/04/04 11:23:03;;;;;;;;;;;;;;;20.87;27.72;95506.59;10510231;28;1906;-53
2022/04/04 11:28:04;;;;;;;;;;;;;;;20.89;27.72;95496.56;10507705;28;1898;-53
2022/04/04 11:33:10;;;;;;;;;;;;;;;20.87;27.94;95488.94;10506762;28;1853;-45
2022/04/04 11:38:17;;;;;;;;;;;;;;;20.88;27.86;95485.22;10515627;28;1666;-47
2022/04/04 11:43:17;;;;;;;;;;;;;;;20.89;27.93;95472.84;10493541;28;1969;-48
2022/04/04 11:48:23;;;;;;;;;;;;;;;20.90;27.71;95464.66;10491328;28;1842;-49
2022/04/04 11:53:28;;;;;;;;;;;;;;;20.93;27.69;95460.69;10485207;28;1848;-49
2022/04/04 11:58:28;;;;;;;;;;;;;;;20.90;27.66;95448.84;10495282;28;1798;-47
2022/04/04 12:03:29;;;;;;;;;;;;;;;20.91;27.66;95447.00;10490035;28;1932;-46
2022/04/04 12:08:29;;;;;;;;;;;;;;;20.91;27.60;95433.81;10486982;28;1864;-49
2022/04/04 12:13:31;;;;;;;;;;;;;;;20.93;27.30;95427.22;10493941;28;1755;-51
2022/04/04 12:18:32;;;;;;;;;;;;;;;20.95;27.01;95411.91;10509828;28;1842;-46
2022/04/04 12:28:53;;;;;;;;;;;;;;;20.92;27.37;95399.28;10505999;28;1853;-47
2022/04/04 12:34:00;;;;;;;;;;;;;;;20.90;27.52;95390.09;10510837;28;1869;-50
2022/04/04 12:39:00;;;;;;;;;;;;;;;20.90;27.59;95384.81;10508189;28;1778;-49
2022/04/04 12:44:01;;;;;;;;;;;;;;;20.92;27.42;95383.47;10506149;28;1902;-52
2022/04/04 12:49:09;;;;;;;;;;;;;;;20.91;27.29;95371.38;10506651;28;1857;-50
2022/04/04 12:54:09;;;;;;;;;;;;;;;20.92;27.36;95357.13;10484762;28;1802;-48
2022/04/04 12:59:10;;;;;;;;;;;;;;;20.85;27.40;95340.13;10504073;28;1718;-50
2022/04/04 13:04:21;;;;;;;;;;;;;;;20.88;27.58;95334.28;10491920;28;1969;-49
2022/04/04 13:09:24;;;;;;;;;;;;;;;20.81;27.74;95328.59;10506009;28;1843;-48
2022/04/04 13:14:25;;;;;;;;;;;;;;;20.85;27.59;95306.66;10488700;28;1824;-48
2022/04/04 13:19:26;;;;;;;;;;;;;;;20.85;27.48;95309.31;10479268;28;1798;-47
2022/04/04 13:24:27;;;;;;;;;;;;;;;20.79;27.61;95304.38;10502120;28;1934;-49
2022/04/04 13:29:28;;;;;;;;;;;;;;;20.85;27.59;95297.97;10484987;28;1842;-49
2022/04/04 13:34:28;;;;;;;;;;;;;;;20.78;27.70;95297.53;10507423;28;1944;-48
2022/04/04 13:39:29;;;;;;;;;;;;;;;20.79;27.20;95278.81;10485158;28;1998;-46
2022/04/04 13:44:30;;;;;;;;;;;;;;;20.86;27.09;95271.34;10505872;28;1910;-48
2022/04/04 13:49:31;;;;;;;;;;;;;;;20.85;27.37;95253.97;10484590;28;1929;-48
2022/04/04 13:54:32;;;;;;;;;;;;;;;20.87;27.56;95251.84;10499208;28;1786;-49
2022/04/04 13:59:32;;;;;;;;;;;;;;;20.90;27.21;95230.16;10504995;28;1918;-49
2022/04/04 14:04:37;;;;;;;;;;;;;;;20.97;26.98;95212.16;10513783;28;1914;-53
2022/04/04 14:09:37;;;;;;;;;;;;;;;20.96;27.20;95209.78;10483800;28;1826;-49
2022/04/04 14:14:37;;;;;;;;;;;;;;;20.99;27.10;95204.75;10488247;28;1965;-48
2022/04/04 14:19:37;;;;;;;;;;;;;;;20.96;27.26;95200.03;10491573;28;1832;-55
2022/04/04 14:24:38;;;;;;;;;;;;;;;20.98;27.35;95192.63;10493310;28;1895;-53
2022/04/04 14:29:38;;;;;;;;;;;;;;;20.99;27.46;95174.97;10491741;28;1798;-51
2022/04/04 14:34:39;;;;;;;;;;;;;;;21.00;27.54;95169.41;10496884;28;1799;-48
2022/04/04 14:39:39;;;;;;;;;;;;;;;21.03;27.18;95168.88;10490029;28;1904;-50
2022/04/04 14:44:41;;;;;;;;;;;;;;;20.99;27.49;95149.41;10511973;28;1963;-55
2022/04/04 14:49:42;;;;;;;;;;;;;;;21.00;27.16;95153.59;10512371;28;1819;-51
2022/04/04 14:54:43;;;;;;;;;;;;;;;21.00;27.11;95145.69;10472589;28;1754;-51
2022/04/04 14:59:44;;;;;;;;;;;;;;;20.98;26.92;95139.13;10496014;28;1885;-50
2022/04/04 15:04:44;;;;;;;;;;;;;;;21.00;26.64;95131.72;10493047;28;1906;-49
2022/04/04 15:09:45;;;;;;;;;;;;;;;20.99;26.99;95136.22;10506165;28;1966;-50
2022/04/04 15:14:47;;;;;;;;;;;;;;;20.98;26.63;95123.34;10507671;28;1792;-49
2022/04/04 15:19:47;;;;;;;;;;;;;;;21.00;26.75;95118.56;10494785;28;1786;-49
2022/04/04 15:24:47;;;;;;;;;;;;;;;20.99;26.87;95122.28;10515846;28;2096;-50
2022/04/04 15:29:48;;;;;;;;;;;;;;;21.01;26.92;95118.28;10486037;28;1881;-49
2022/04/04 15:34:48;;;;;;;;;;;;;;;21.06;27.10;95128.75;10488588;28;1996;-49
2022/04/04 15:39:49;;;;;;;;;;;;;;;21.05;26.83;95114.03;10508101;28;1918;-50
2022/04/04 15:44:53;;;;;;;;;;;;;;;21.02;26.88;95109.31;10486977;28;1950;-48
2022/04/04 15:49:53;;;;;;;;;;;;;;;21.00;27.29;95108.81;10487751;28;1854;-49
2022/04/04 15:54:55;;;;;;;;;;;;;;;21.03;26.89;95103.00;10484417;28;1823;-48
2022/04/04 15:59:55;;;;;;;;;;;;;;;21.02;27.06;95108.53;10486881;28;1881;-50
2022/04/04 16:04:56;;;;;;;;;;;;;;;21.02;27.13;95106.69;10513753;28;1906;-50
2022/04/04 16:10:00;;;;;;;;;;;;;;;21.02;27.16;95095.34;10489018;28;1858;-46
2022/04/04 16:15:00;;;;;;;;;;;;;;;21.01;27.11;95091.16;10507102;28;1830;-47
2022/04/04 16:20:01;;;;;;;;;;;;;;;20.97;27.21;95095.44;10508778;28;1849;-51
2022/04/04 16:25:01;;;;;;;;;;;;;;;20.96;27.22;95089.38;10516292;28;1914;-53
2022/04/04 16:30:02;;;;;;;;;;;;;;;20.96;27.47;95094.66;10506169;28;1857;-47
2022/04/04 16:35:03;;;;;;;;;;;;;;;20.95;27.29;95085.19;10483538;28;1851;-48
2022/04/04 16:40:05;;;;;;;;;;;;;;;20.94;27.51;95075.72;10498028;28;2289;-53
2022/04/04 16:45:06;;;;;;;;;;;;;;;20.95;28.00;95076.50;10491826;28;1969;-52
2022/04/04 16:50:06;;;;;;;;;;;;;;;20.96;28.39;95089.38;10482899;28;1951;-50
2022/04/04 16:55:07;;;;;;;;;;;;;;;20.95;28.05;95093.09;10488564;28;1955;-48
2022/04/04 17:00:08;;;;;;;;;;;;;;;20.92;28.29;95098.94;10483499;28;1790;-51
2022/04/04 17:05:08;;;;;;;;;;;;;;;20.91;28.36;95097.38;10484725;28;1910;-52
2022/04/04 17:10:09;;;;;;;;;;;;;;;20.91;28.60;95097.38;10503055;28;1782;-56
2022/04/04 17:15:09;;;;;;;;;;;;;;;20.90;28.34;95085.28;10485636;28;1995;-51
2022/04/04 17:20:10;;;;;;;;;;;;;;;20.87;28.65;95096.41;10489624;28;1793;-51
2022/04/04 17:25:11;;;;;;;;;;;;;;;20.87;28.70;95096.41;10491015;28;1955;-50
2022/04/04 17:30:12;;;;;;;;;;;;;;;20.89;28.17;95088.22;10511538;28;2034;-51
2022/04/04 17:35:12;;;;;;;;;;;;;;;20.85;28.49;95085.38;10510070;28;1888;-50
2022/04/04 17:40:14;;;;;;;;;;;;;;;20.86;28.93;95079.03;10511352;28;1767;-49
2022/04/04 17:45:15;;;;;;;;;;;;;;;20.87;28.58;95091.13;10509685;28;1972;-53
2022/04/04 17:50:15;;;;;;;;;;;;;;;20.85;28.99;95085.38;10485617;28;2015;-49
2022/04/04 17:55:16;;;;;;;;;;;;;;;20.85;29.04;95085.38;10492769;28;1810;-48
2022/04/04 18:00:16;;;;;;;;;;;;;;;20.89;28.65;95089.00;10489582;28;1894;-51
2022/04/04 18:05:17;;;;;;;;;;;;;;;20.87;28.77;95101.69;10506285;28;1914;-52
2022/04/04 18:10:17;;;;;;;;;;;;;;;20.87;28.83;95101.69;10489581;28;1797;-52
2022/04/04 18:15:18;;;;;;;;;;;;;;;20.90;28.42;95098.44;10487485;28;1865;-46
2022/04/04 18:20:18;;;;;;;;;;;;;;;20.89;28.62;95099.53;10493119;28;1863;-53
2022/04/04 18:25:18;;;;;;;;;;;;;;;20.89;28.66;95111.91;10483538;28;1917;-53
2022/04/04 18:30:19;;;;;;;;;;;;;;;20.94;28.43;95109.97;10474154;28;1930;-52
2022/04/04 18:35:19;;;;;;;;;;;;;;;20.93;28.08;95121.59;10506847;28;1992;-53
2022/04/04 18:40:20;;;;;;;;;;;;;;;20.86;28.15;95121.19;10489239;28;1835;-55
2022/04/04 18:45:21;;;;;;;;;;;;;;;20.89;28.38;95135.63;10463391;28;1969;-51
2022/04/04 18:50:22;;;;;;;;;;;;;;;20.92;28.77;95130.56;10478959;28;1832;-52
2022/04/04 18:55:23;;;;;;;;;;;;;;;20.91;28.82;95133.47;10498208;28;1875;-53
2022/04/04 19:00:23;;;;;;;;;;;;;;;20.91;28.56;95130.84;10515398;28;1538;-56
2022/04/04 19:05:24;;;;;;;;;;;;;;;20.90;28.62;95137.97;10509946;28;1914;-54
2022/04/04 19:10:24;;;;;;;;;;;;;;;20.91;28.60;95147.44;10498137;28;1848;-55
2022/04/04 19:15:24;;;;;;;;;;;;;;;20.90;28.23;95152.97;10507558;28;1778;-51
2022/04/04 19:20:25;;;;;;;;;;;;;;;20.92;29.34;95148.22;10491832;28;1897;-51
2022/04/04 19:25:25;;;;;;;;;;;;;;;20.91;31.12;95147.44;10509906;28;2188;-53
2022/04/04 19:30:25;;;;;;;;;;;;;;;20.97;31.47;95153.41;10492531;28;1825;-53
2022/04/04 19:35:27;;;;;;;;;;;;;;;20.97;31.19;95162.09;10492980;28;1881;-51
2022/04/04 19:40:28;;;;;;;;;;;;;;;20.95;31.90;95148.44;10507194;28;1971;-52
2022/04/04 19:45:28;;;;;;;;;;;;;;;20.90;32.04;95155.63;10497423;28;1819;-55
2022/04/04 19:50:29;;;;;;;;;;;;;;;20.92;31.87;95156.09;10494193;28;1816;-52
2022/04/04 19:55:29;;;;;;;;;;;;;;;20.89;31.58;95146.97;10492428;28;1875;-57
2022/04/04 20:00:30;;;;;;;;;;;;;;;20.86;31.64;95163.31;10511312;28;1974;-52
2022/04/04 20:05:30;;;;;;;;;;;;;;;20.86;31.33;95154.63;10511049;28;1707;-53
2022/04/04 20:10:31;;;;;;;;;;;;;;;20.85;30.97;95161.78;10487439;28;1733;-56
2022/04/04 20:15:31;;;;;;;;;;;;;;;20.81;31.52;95166.03;10486834;28;1841;-53
2022/04/04 20:20:32;;;;;;;;;;;;;;;20.80;31.71;95168.97;10510688;28;1910;-56
2022/04/04 20:25:33;;;;;;;;;;;;;;;20.77;31.22;95161.66;10505410;28;1861;-54
2022/04/04 20:30:33;;;;;;;;;;;;;;;20.74;31.05;95160.38;10506072;28;1861;-54
2022/04/04 20:35:34;;;;;;;;;;;;;;;20.75;31.25;95164.56;10490016;28;1846;-51
2022/04/04 20:40:35;;;;;;;;;;;;;;;20.73;31.36;95164.06;10488225;28;2133;-52
2022/04/04 20:45:37;;;;;;;;;;;;;;;20.74;30.75;95156.94;10505733;28;1845;-52
2022/04/04 20:50:38;;;;;;;;;;;;;;;20.71;30.98;95163.56;10515866;28;1854;-51
2022/04/04 20:55:38;;;;;;;;;;;;;;;20.74;30.61;95164.84;10491429;28;1849;-54
2022/04/04 21:00:38;;;;;;;;;;;;;;;20.69;30.74;95176.25;10491348;28;1887;-53
2022/04/04 21:05:39;;;;;;;;;;;;;;;20.68;30.19;95166.78;10486375;28;1955;-53
2022/04/04 21:10:40;;;;;;;;;;;;;;;20.68;30.42;95166.00;10482415;28;1849;-53
2022/04/04 21:15:40;;;;;;;;;;;;;;;20.68;30.17;95158.88;10503760;28;1809;-49
2022/04/04 21:20:41;;;;;;;;;;;;;;;20.66;30.02;95166.28;10488365;28;1902;-52
2022/04/04 21:25:41;;;;;;;;;;;;;;;20.70;29.86;95169.13;10508927;28;1924;-54
2022/04/04 21:30:41;;;;;;;;;;;;;;;20.68;29.69;95151.00;10509140;28;1753;-53
2022/04/04 21:35:42;;;;;;;;;;;;;;;20.65;29.71;95151.53;10506802;28;1818;-55
2022/04/04 21:40:42;;;;;;;;;;;;;;;20.69;29.54;95147.28;10502444;28;1975;-54
2022/04/04 21:45:45;;;;;;;;;;;;;;;20.69;28.99;95147.28;10500935;28;1887;-52
2022/04/04 21:50:45;;;;;;;;;;;;;;;20.69;29.05;95147.28;10487015;28;1878;-51
2022/04/04 21:55:46;;;;;;;;;;;;;;;20.70;29.15;95162.00;10486623;28;1725;-53
2022/04/04 22:00:47;;;;;;;;;;;;;;;20.74;28.99;95160.38;10490889;28;2007;-54
2022/04/04 22:05:47;;;;;;;;;;;;;;;20.73;28.77;95160.66;10490466;28;1883;-56
2022/04/04 22:10:48;;;;;;;;;;;;;;;20.71;28.82;95152.28;10505061;28;1836;-56
2022/04/04 22:15:48;;;;;;;;;;;;;;;20.68;28.78;95145.72;10491233;28;2157;-56
2022/04/04 22:20:49;;;;;;;;;;;;;;;20.66;28.43;95147.06;10478654;28;1981;-53
2022/04/04 22:25:50;;;;;;;;;;;;;;;20.70;28.45;95148.84;10490754;28;1829;-50
2022/04/04 22:30:50;;;;;;;;;;;;;;;20.70;28.36;95151.47;10510162;28;1654;-52
2022/04/04 22:35:50;;;;;;;;;;;;;;;20.72;28.05;95144.06;10511823;28;1589;-52
2022/04/04 22:40:51;;;;;;;;;;;;;;;20.71;28.05;95142.50;10512139;28;1902;-52
2022/04/04 22:45:51;;;;;;;;;;;;;;;20.70;28.06;95134.88;10513815;28;1932;-51
2022/04/04 22:50:53;;;;;;;;;;;;;;;20.70;28.03;95140.16;10496042;28;1851;-53
2022/04/04 22:55:53;;;;;;;;;;;;;;;20.71;27.95;95147.75;10516476;28;1871;-48
2022/04/04 23:00:54;;;;;;;;;;;;;;;20.70;27.89;95138.31;10495922;28;1977;-56
2022/04/04 23:05:54;;;;;;;;;;;;;;;20.70;27.62;95138.31;10497997;28;1810;-54
2022/04/04 23:10:55;;;;;;;;;;;;;;;20.71;27.53;95145.13;10516774;28;1872;-52
2022/04/04 23:15:55;;;;;;;;;;;;;;;20.69;27.85;95143.88;10494315;28;1780;-56
2022/04/04 23:20:55;;;;;;;;;;;;;;;20.71;27.60;95139.84;10496919;28;1972;-53
2022/04/04 23:25:56;;;;;;;;;;;;;;;20.72;27.41;95143.28;10494623;28;1794;-53
2022/04/04 23:30:56;;;;;;;;;;;;;;;20.70;27.46;95143.59;10499646;28;1761;-53
2022/04/04 23:35:56;;;;;;;;;;;;;;;20.69;27.67;95135.97;10496737;28;1851;-56
2022/04/04 23:40:56;;;;;;;;;;;;;;;20.69;27.37;95136.72;10495978;28;1973;-56
2022/04/04 23:45:57;;;;;;;;;;;;;;;20.71;27.50;95133.84;10510346;28;1888;-56
2022/04/04 23:50:58;;;;;;;;;;;;;;;20.70;27.28;95133.03;10495054;28;1950;-53
2022/04/04 23:55:58;;;;;;;;;;;;;;;20.67;27.38;95123.06;10497248;28;1826;-54
